sensor_id;sensor_type;location;lat;lon;timestamp;P1;durP1;ratioP1;P2;durP2;ratioP2
19617;SDS011;9956;51.006;13.670;2023-12-20T00:01:34;14.73;;;9.88;;
19617;SDS011;9956;51.006;13.670;2023-12-20T00:06:35;18.80;;;10.40;;
19617;SDS011;9956;51.006;13.670;2023-12-20T00:11:35;13.60;;;8.77;;
19617;SDS011;9956;51.006;13.670;2023-12-20T00:16:35;14.80;;;9.30;;
19617;SDS011;9956;51.006;13.670;2023-12-20T00:21:36;18.45;;;9.25;;
19617;SDS011;9956;51.006;13.670;2023-12-20T00:26:36;15.63;;;9.18;;
19617;SDS011;9956;51.006;13.670;2023-12-20T00:31:37;10.00;;;8.13;;
19617;SDS011;9956;51.006;13.670;2023-12-20T00:36:37;12.73;;;8.45;;
19617;SDS011;9956;51.006;13.670;2023-12-20T00:41:38;13.82;;;7.88;;
19617;SDS011;9956;51.006;13.670;2023-12-20T00:46:38;10.38;;;7.00;;
19617;SDS011;9956;51.006;13.670;2023-12-20T00:51:39;10.38;;;6.97;;
19617;SDS011;9956;51.006;13.670;2023-12-20T00:56:39;11.02;;;7.05;;
19617;SDS011;9956;51.006;13.670;2023-12-20T01:01:39;8.57;;;6.18;;
19617;SDS011;9956;51.006;13.670;2023-12-20T01:06:40;7.88;;;6.18;;
19617;SDS011;9956;51.006;13.670;2023-12-20T01:11:40;9.20;;;5.68;;
19617;SDS011;9956;51.006;13.670;2023-12-20T01:16:41;6.80;;;5.40;;
19617;SDS011;9956;51.006;13.670;2023-12-20T01:21:41;10.07;;;5.55;;
19617;SDS011;9956;51.006;13.670;2023-12-20T01:26:42;7.68;;;5.03;;
19617;SDS011;9956;51.006;13.670;2023-12-20T01:31:42;7.78;;;5.65;;
19617;SDS011;9956;51.006;13.670;2023-12-20T01:36:43;7.90;;;5.20;;
19617;SDS011;9956;51.006;13.670;2023-12-20T01:41:43;6.82;;;4.97;;
19617;SDS011;9956;51.006;13.670;2023-12-20T01:46:46;6.18;;;4.38;;
19617;SDS011;9956;51.006;13.670;2023-12-20T01:51:46;7.15;;;4.47;;
19617;SDS011;9956;51.006;13.670;2023-12-20T01:56:47;6.68;;;4.97;;
19617;SDS011;9956;51.006;13.670;2023-12-20T02:01:49;6.13;;;4.35;;
19617;SDS011;9956;51.006;13.670;2023-12-20T02:06:52;8.43;;;4.40;;
19617;SDS011;9956;51.006;13.670;2023-12-20T02:11:53;6.10;;;4.68;;
19617;SDS011;9956;51.006;13.670;2023-12-20T02:16:54;7.15;;;4.47;;
19617;SDS011;9956;51.006;13.670;2023-12-20T02:22:16;6.03;;;4.78;;
19617;SDS011;9956;51.006;13.670;2023-12-20T02:27:15;5.72;;;4.30;;
19617;SDS011;9956;51.006;13.670;2023-12-20T02:32:18;5.25;;;4.10;;
19617;SDS011;9956;51.006;13.670;2023-12-20T02:37:19;4.95;;;3.88;;
19617;SDS011;9956;51.006;13.670;2023-12-20T02:42:19;4.25;;;3.78;;
19617;SDS011;9956;51.006;13.670;2023-12-20T02:47:20;3.28;;;2.97;;
19617;SDS011;9956;51.006;13.670;2023-12-20T02:52:20;3.88;;;3.50;;
19617;SDS011;9956;51.006;13.670;2023-12-20T02:57:23;5.40;;;3.42;;
19617;SDS011;9956;51.006;13.670;2023-12-20T03:02:23;4.00;;;3.42;;
19617;SDS011;9956;51.006;13.670;2023-12-20T03:07:24;3.40;;;2.97;;
19617;SDS011;9956;51.006;13.670;2023-12-20T03:12:24;5.35;;;3.28;;
19617;SDS011;9956;51.006;13.670;2023-12-20T03:17:25;5.28;;;4.05;;
19617;SDS011;9956;51.006;13.670;2023-12-20T03:22:25;4.10;;;3.42;;
19617;SDS011;9956;51.006;13.670;2023-12-20T03:27:25;3.30;;;2.88;;
19617;SDS011;9956;51.006;13.670;2023-12-20T03:32:26;3.55;;;3.25;;
19617;SDS011;9956;51.006;13.670;2023-12-20T03:37:26;4.38;;;3.08;;
19617;SDS011;9956;51.006;13.670;2023-12-20T03:42:27;2.83;;;2.58;;
19617;SDS011;9956;51.006;13.670;2023-12-20T03:47:27;3.47;;;2.83;;
19617;SDS011;9956;51.006;13.670;2023-12-20T03:52:28;3.13;;;2.80;;
19617;SDS011;9956;51.006;13.670;2023-12-20T03:57:28;2.88;;;2.65;;
19617;SDS011;9956;51.006;13.670;2023-12-20T04:02:28;3.50;;;3.13;;
19617;SDS011;9956;51.006;13.670;2023-12-20T04:07:29;3.30;;;2.45;;
19617;SDS011;9956;51.006;13.670;2023-12-20T04:12:30;3.15;;;2.85;;
19617;SDS011;9956;51.006;13.670;2023-12-20T04:17:31;4.03;;;3.28;;
19617;SDS011;9956;51.006;13.670;2023-12-20T04:22:31;3.60;;;2.88;;
19617;SDS011;9956;51.006;13.670;2023-12-20T04:27:32;3.50;;;3.00;;
19617;SDS011;9956;51.006;13.670;2023-12-20T04:32:32;3.38;;;3.05;;
19617;SDS011;9956;51.006;13.670;2023-12-20T04:37:32;4.10;;;3.42;;
19617;SDS011;9956;51.006;13.670;2023-12-20T04:42:33;3.63;;;3.00;;
19617;SDS011;9956;51.006;13.670;2023-12-20T04:47:33;3.67;;;2.92;;
19617;SDS011;9956;51.006;13.670;2023-12-20T04:52:34;4.63;;;3.70;;
19617;SDS011;9956;51.006;13.670;2023-12-20T04:57:35;4.57;;;3.80;;
19617;SDS011;9956;51.006;13.670;2023-12-20T05:02:35;3.60;;;3.00;;
19617;SDS011;9956;51.006;13.670;2023-12-20T05:07:43;5.32;;;3.67;;
19617;SDS011;9956;51.006;13.670;2023-12-20T05:12:44;4.22;;;3.50;;
19617;SDS011;9956;51.006;13.670;2023-12-20T05:17:44;4.22;;;3.60;;
19617;SDS011;9956;51.006;13.670;2023-12-20T05:22:45;3.55;;;2.85;;
19617;SDS011;9956;51.006;13.670;2023-12-20T05:27:46;3.58;;;3.28;;
19617;SDS011;9956;51.006;13.670;2023-12-20T05:32:46;3.50;;;2.78;;
19617;SDS011;9956;51.006;13.670;2023-12-20T05:37:47;2.92;;;2.70;;
19617;SDS011;9956;51.006;13.670;2023-12-20T05:42:47;4.03;;;2.65;;
19617;SDS011;9956;51.006;13.670;2023-12-20T05:47:48;4.43;;;2.58;;
19617;SDS011;9956;51.006;13.670;2023-12-20T05:52:48;2.60;;;2.40;;
19617;SDS011;9956;51.006;13.670;2023-12-20T05:57:49;3.90;;;2.75;;
19617;SDS011;9956;51.006;13.670;2023-12-20T06:02:49;5.07;;;3.58;;
19617;SDS011;9956;51.006;13.670;2023-12-20T06:07:50;3.75;;;3.25;;
19617;SDS011;9956;51.006;13.670;2023-12-20T06:12:50;3.78;;;3.38;;
19617;SDS011;9956;51.006;13.670;2023-12-20T06:17:51;6.65;;;5.72;;
19617;SDS011;9956;51.006;13.670;2023-12-20T06:22:51;7.47;;;5.20;;
19617;SDS011;9956;51.006;13.670;2023-12-20T06:27:52;5.68;;;5.00;;
19617;SDS011;9956;51.006;13.670;2023-12-20T06:32:58;6.03;;;5.22;;
19617;SDS011;9956;51.006;13.670;2023-12-20T06:37:59;7.05;;;5.18;;
19617;SDS011;9956;51.006;13.670;2023-12-20T06:42:59;8.70;;;5.63;;
19617;SDS011;9956;51.006;13.670;2023-12-20T06:48:00;7.82;;;5.70;;
19617;SDS011;9956;51.006;13.670;2023-12-20T06:53:00;10.27;;;9.20;;
19617;SDS011;9956;51.006;13.670;2023-12-20T06:58:06;6.90;;;5.85;;
19617;SDS011;9956;51.006;13.670;2023-12-20T07:03:08;7.88;;;7.00;;
19617;SDS011;9956;51.006;13.670;2023-12-20T07:08:09;9.80;;;7.10;;
19617;SDS011;9956;51.006;13.670;2023-12-20T07:13:10;9.15;;;8.07;;
19617;SDS011;9956;51.006;13.670;2023-12-20T07:18:11;9.57;;;8.07;;
19617;SDS011;9956;51.006;13.670;2023-12-20T07:23:11;11.50;;;9.23;;
19617;SDS011;9956;51.006;13.670;2023-12-20T07:28:12;10.35;;;8.80;;
19617;SDS011;9956;51.006;13.670;2023-12-20T07:33:12;13.13;;;10.25;;
19617;SDS011;9956;51.006;13.670;2023-12-20T07:38:12;17.88;;;11.80;;
19617;SDS011;9956;51.006;13.670;2023-12-20T07:43:13;17.85;;;13.82;;
19617;SDS011;9956;51.006;13.670;2023-12-20T07:48:13;19.10;;;12.15;;
19617;SDS011;9956;51.006;13.670;2023-12-20T07:53:14;15.77;;;10.35;;
19617;SDS011;9956;51.006;13.670;2023-12-20T07:58:14;14.02;;;10.23;;
19617;SDS011;9956;51.006;13.670;2023-12-20T08:03:15;12.82;;;8.48;;
19617;SDS011;9956;51.006;13.670;2023-12-20T08:08:16;13.13;;;9.40;;
19617;SDS011;9956;51.006;13.670;2023-12-20T08:13:16;11.10;;;9.90;;
19617;SDS011;9956;51.006;13.670;2023-12-20T08:18:17;7.32;;;6.63;;
19617;SDS011;9956;51.006;13.670;2023-12-20T08:23:17;6.35;;;5.75;;
19617;SDS011;9956;51.006;13.670;2023-12-20T08:28:18;5.63;;;4.32;;
19617;SDS011;9956;51.006;13.670;2023-12-20T08:33:19;5.70;;;4.18;;
19617;SDS011;9956;51.006;13.670;2023-12-20T08:38:19;5.05;;;3.55;;
19617;SDS011;9956;51.006;13.670;2023-12-20T08:43:20;5.68;;;3.67;;
19617;SDS011;9956;51.006;13.670;2023-12-20T08:48:20;4.03;;;2.55;;
19617;SDS011;9956;51.006;13.670;2023-12-20T08:53:21;1.92;;;1.33;;
19617;SDS011;9956;51.006;13.670;2023-12-20T08:58:21;2.67;;;2.08;;
19617;SDS011;9956;51.006;13.670;2023-12-20T09:03:22;4.15;;;2.20;;
19617;SDS011;9956;51.006;13.670;2023-12-20T09:08:22;2.40;;;1.45;;
19617;SDS011;9956;51.006;13.670;2023-12-20T09:13:23;4.60;;;1.80;;
19617;SDS011;9956;51.006;13.670;2023-12-20T09:18:31;2.92;;;1.25;;
19617;SDS011;9956;51.006;13.670;2023-12-20T09:23:32;2.80;;;1.38;;
19617;SDS011;9956;51.006;13.670;2023-12-20T09:28:32;3.45;;;1.40;;
19617;SDS011;9956;51.006;13.670;2023-12-20T09:33:36;1.90;;;1.10;;
19617;SDS011;9956;51.006;13.670;2023-12-20T09:38:37;2.90;;;1.55;;
19617;SDS011;9956;51.006;13.670;2023-12-20T09:43:37;5.38;;;2.40;;
19617;SDS011;9956;51.006;13.670;2023-12-20T09:48:39;4.35;;;1.50;;
19617;SDS011;9956;51.006;13.670;2023-12-20T09:53:40;2.28;;;1.92;;
19617;SDS011;9956;51.006;13.670;2023-12-20T09:58:42;3.30;;;1.98;;
19617;SDS011;9956;51.006;13.670;2023-12-20T10:03:42;3.08;;;1.38;;
19617;SDS011;9956;51.006;13.670;2023-12-20T10:08:43;1.65;;;1.20;;
19617;SDS011;9956;51.006;13.670;2023-12-20T10:13:43;3.17;;;1.25;;
19617;SDS011;9956;51.006;13.670;2023-12-20T10:18:44;4.32;;;1.77;;
19617;SDS011;9956;51.006;13.670;2023-12-20T10:23:45;2.92;;;1.55;;
19617;SDS011;9956;51.006;13.670;2023-12-20T10:28:46;2.55;;;1.58;;
19617;SDS011;9956;51.006;13.670;2023-12-20T10:33:46;3.15;;;1.70;;
19617;SDS011;9956;51.006;13.670;2023-12-20T10:38:47;3.22;;;1.52;;
19617;SDS011;9956;51.006;13.670;2023-12-20T10:43:49;3.67;;;1.42;;
19617;SDS011;9956;51.006;13.670;2023-12-20T10:48:55;3.45;;;1.60;;
19617;SDS011;9956;51.006;13.670;2023-12-20T10:53:57;3.08;;;2.42;;
19617;SDS011;9956;51.006;13.670;2023-12-20T10:58:57;3.28;;;2.05;;
19617;SDS011;9956;51.006;13.670;2023-12-20T11:04:02;3.28;;;1.67;;
19617;SDS011;9956;51.006;13.670;2023-12-20T11:09:22;3.17;;;1.75;;
19617;SDS011;9956;51.006;13.670;2023-12-20T11:15:07;4.72;;;1.75;;
19617;SDS011;9956;51.006;13.670;2023-12-20T11:24:53;5.07;;;1.95;;
19617;SDS011;9956;51.006;13.670;2023-12-20T11:29:55;1.85;;;1.48;;
19617;SDS011;9956;51.006;13.670;2023-12-20T11:35:00;2.70;;;1.20;;
19617;SDS011;9956;51.006;13.670;2023-12-20T11:40:14;4.68;;;1.65;;
19617;SDS011;9956;51.006;13.670;2023-12-20T11:45:17;5.57;;;2.30;;
19617;SDS011;9956;51.006;13.670;2023-12-20T11:50:20;2.70;;;1.55;;
19617;SDS011;9956;51.006;13.670;2023-12-20T11:55:22;3.40;;;1.60;;
19617;SDS011;9956;51.006;13.670;2023-12-20T12:00:24;4.93;;;1.60;;
19617;SDS011;9956;51.006;13.670;2023-12-20T12:05:25;2.58;;;1.48;;
19617;SDS011;9956;51.006;13.670;2023-12-20T12:10:26;3.42;;;1.70;;
19617;SDS011;9956;51.006;13.670;2023-12-20T12:15:26;4.50;;;1.50;;
19617;SDS011;9956;51.006;13.670;2023-12-20T12:20:27;4.35;;;2.45;;
19617;SDS011;9956;51.006;13.670;2023-12-20T12:25:28;3.42;;;1.90;;
19617;SDS011;9956;51.006;13.670;2023-12-20T12:30:30;3.67;;;2.05;;
19617;SDS011;9956;51.006;13.670;2023-12-20T12:35:30;3.20;;;1.70;;
19617;SDS011;9956;51.006;13.670;2023-12-20T12:40:34;3.65;;;1.52;;
19617;SDS011;9956;51.006;13.670;2023-12-20T12:45:35;2.30;;;1.17;;
19617;SDS011;9956;51.006;13.670;2023-12-20T12:50:36;2.97;;;1.15;;
19617;SDS011;9956;51.006;13.670;2023-12-20T12:55:36;3.05;;;1.80;;
19617;SDS011;9956;51.006;13.670;2023-12-20T13:00:37;5.25;;;1.63;;
19617;SDS011;9956;51.006;13.670;2023-12-20T13:05:37;3.50;;;2.15;;
19617;SDS011;9956;51.006;13.670;2023-12-20T13:10:38;7.53;;;2.45;;
19617;SDS011;9956;51.006;13.670;2023-12-20T13:15:38;3.55;;;3.17;;
19617;SDS011;9956;51.006;13.670;2023-12-20T13:20:39;4.07;;;1.52;;
19617;SDS011;9956;51.006;13.670;2023-12-20T13:25:41;2.65;;;1.60;;
19617;SDS011;9956;51.006;13.670;2023-12-20T13:30:41;5.43;;;2.35;;
19617;SDS011;9956;51.006;13.670;2023-12-20T13:35:42;4.20;;;2.00;;
19617;SDS011;9956;51.006;13.670;2023-12-20T13:40:42;2.72;;;1.77;;
19617;SDS011;9956;51.006;13.670;2023-12-20T13:45:43;5.05;;;1.55;;
19617;SDS011;9956;51.006;13.670;2023-12-20T13:50:43;7.38;;;2.08;;
19617;SDS011;9956;51.006;13.670;2023-12-20T13:55:44;5.00;;;2.17;;
19617;SDS011;9956;51.006;13.670;2023-12-20T14:00:44;5.97;;;1.75;;
19617;SDS011;9956;51.006;13.670;2023-12-20T14:05:45;3.17;;;1.85;;
19617;SDS011;9956;51.006;13.670;2023-12-20T14:10:46;5.95;;;3.45;;
19617;SDS011;9956;51.006;13.670;2023-12-20T14:15:46;3.88;;;2.38;;
19617;SDS011;9956;51.006;13.670;2023-12-20T14:20:49;4.50;;;2.55;;
19617;SDS011;9956;51.006;13.670;2023-12-20T14:25:51;5.10;;;2.00;;
19617;SDS011;9956;51.006;13.670;2023-12-20T14:30:51;3.28;;;2.53;;
19617;SDS011;9956;51.006;13.670;2023-12-20T14:35:51;3.88;;;2.53;;
19617;SDS011;9956;51.006;13.670;2023-12-20T14:40:52;2.47;;;1.70;;
19617;SDS011;9956;51.006;13.670;2023-12-20T14:45:53;1.95;;;1.60;;
19617;SDS011;9956;51.006;13.670;2023-12-20T14:50:54;4.38;;;1.73;;
19617;SDS011;9956;51.006;13.670;2023-12-20T14:55:54;3.50;;;1.70;;
19617;SDS011;9956;51.006;13.670;2023-12-20T15:00:55;4.05;;;1.58;;
19617;SDS011;9956;51.006;13.670;2023-12-20T15:05:56;2.53;;;1.23;;
19617;SDS011;9956;51.006;13.670;2023-12-20T15:10:58;2.90;;;1.50;;
19617;SDS011;9956;51.006;13.670;2023-12-20T15:15:59;3.95;;;1.40;;
19617;SDS011;9956;51.006;13.670;2023-12-20T15:20:59;2.78;;;1.98;;
19617;SDS011;9956;51.006;13.670;2023-12-20T15:26:00;3.95;;;1.60;;
19617;SDS011;9956;51.006;13.670;2023-12-20T15:31:00;2.30;;;1.40;;
19617;SDS011;9956;51.006;13.670;2023-12-20T15:36:01;1.88;;;1.50;;
19617;SDS011;9956;51.006;13.670;2023-12-20T15:41:01;2.53;;;1.45;;
19617;SDS011;9956;51.006;13.670;2023-12-20T15:46:03;4.72;;;1.90;;
19617;SDS011;9956;51.006;13.670;2023-12-20T15:51:07;2.63;;;1.42;;
19617;SDS011;9956;51.006;13.670;2023-12-20T15:56:08;5.72;;;1.70;;
19617;SDS011;9956;51.006;13.670;2023-12-20T16:01:09;3.90;;;1.98;;
19617;SDS011;9956;51.006;13.670;2023-12-20T16:06:09;4.30;;;1.52;;
19617;SDS011;9956;51.006;13.670;2023-12-20T16:11:11;2.22;;;1.40;;
19617;SDS011;9956;51.006;13.670;2023-12-20T16:16:11;4.15;;;1.60;;
19617;SDS011;9956;51.006;13.670;2023-12-20T16:21:12;3.17;;;2.05;;
19617;SDS011;9956;51.006;13.670;2023-12-20T16:26:13;2.90;;;2.60;;
19617;SDS011;9956;51.006;13.670;2023-12-20T16:31:13;3.15;;;2.10;;
19617;SDS011;9956;51.006;13.670;2023-12-20T16:36:14;2.78;;;1.80;;
19617;SDS011;9956;51.006;13.670;2023-12-20T16:41:14;3.63;;;1.52;;
19617;SDS011;9956;51.006;13.670;2023-12-20T16:46:15;2.90;;;1.63;;
19617;SDS011;9956;51.006;13.670;2023-12-20T16:51:15;2.40;;;1.40;;
19617;SDS011;9956;51.006;13.670;2023-12-20T16:56:15;4.88;;;1.85;;
19617;SDS011;9956;51.006;13.670;2023-12-20T17:01:16;3.33;;;2.13;;
19617;SDS011;9956;51.006;13.670;2023-12-20T17:06:16;3.90;;;2.30;;
19617;SDS011;9956;51.006;13.670;2023-12-20T17:11:17;3.60;;;2.92;;
19617;SDS011;9956;51.006;13.670;2023-12-20T17:16:18;6.00;;;2.67;;
19617;SDS011;9956;51.006;13.670;2023-12-20T17:21:19;3.95;;;2.53;;
19617;SDS011;9956;51.006;13.670;2023-12-20T17:26:19;4.07;;;3.33;;
19617;SDS011;9956;51.006;13.670;2023-12-20T17:31:20;4.55;;;1.98;;
19617;SDS011;9956;51.006;13.670;2023-12-20T17:36:20;3.97;;;1.75;;
19617;SDS011;9956;51.006;13.670;2023-12-20T17:41:21;3.83;;;2.00;;
19617;SDS011;9956;51.006;13.670;2023-12-20T17:46:27;3.80;;;2.38;;
19617;SDS011;9956;51.006;13.670;2023-12-20T17:51:28;3.60;;;2.42;;
19617;SDS011;9956;51.006;13.670;2023-12-20T17:56:28;2.55;;;1.50;;
19617;SDS011;9956;51.006;13.670;2023-12-20T18:01:31;3.35;;;1.92;;
19617;SDS011;9956;51.006;13.670;2023-12-20T18:06:32;3.65;;;1.95;;
19617;SDS011;9956;51.006;13.670;2023-12-20T18:11:32;2.80;;;1.80;;
19617;SDS011;9956;51.006;13.670;2023-12-20T18:16:33;4.65;;;1.92;;
19617;SDS011;9956;51.006;13.670;2023-12-20T18:21:33;4.82;;;2.20;;
19617;SDS011;9956;51.006;13.670;2023-12-20T18:26:34;5.05;;;2.15;;
19617;SDS011;9956;51.006;13.670;2023-12-20T18:31:36;4.72;;;2.72;;
19617;SDS011;9956;51.006;13.670;2023-12-20T18:36:36;4.63;;;1.85;;
19617;SDS011;9956;51.006;13.670;2023-12-20T18:41:37;3.80;;;2.13;;
19617;SDS011;9956;51.006;13.670;2023-12-20T18:46:39;5.30;;;2.05;;
19617;SDS011;9956;51.006;13.670;2023-12-20T18:51:39;6.22;;;2.05;;
19617;SDS011;9956;51.006;13.670;2023-12-20T18:56:40;3.72;;;2.00;;
19617;SDS011;9956;51.006;13.670;2023-12-20T19:01:42;6.25;;;3.90;;
19617;SDS011;9956;51.006;13.670;2023-12-20T19:06:43;4.25;;;2.45;;
19617;SDS011;9956;51.006;13.670;2023-12-20T19:11:43;6.28;;;2.53;;
19617;SDS011;9956;51.006;13.670;2023-12-20T19:16:44;3.85;;;2.28;;
19617;SDS011;9956;51.006;13.670;2023-12-20T19:21:44;4.45;;;2.50;;
19617;SDS011;9956;51.006;13.670;2023-12-20T19:26:46;5.78;;;2.70;;
19617;SDS011;9956;51.006;13.670;2023-12-20T19:31:46;3.58;;;2.80;;
19617;SDS011;9956;51.006;13.670;2023-12-20T19:36:47;6.60;;;2.35;;
19617;SDS011;9956;51.006;13.670;2023-12-20T19:41:48;4.75;;;2.92;;
19617;SDS011;9956;51.006;13.670;2023-12-20T19:46:48;7.13;;;3.88;;
19617;SDS011;9956;51.006;13.670;2023-12-20T19:51:49;4.72;;;4.18;;
19617;SDS011;9956;51.006;13.670;2023-12-20T19:56:50;12.52;;;7.95;;
19617;SDS011;9956;51.006;13.670;2023-12-20T20:01:50;11.35;;;7.30;;
19617;SDS011;9956;51.006;13.670;2023-12-20T20:06:50;12.57;;;7.28;;
19617;SDS011;9956;51.006;13.670;2023-12-20T20:11:52;6.80;;;6.10;;
19617;SDS011;9956;51.006;13.670;2023-12-20T20:16:52;5.35;;;3.38;;
19617;SDS011;9956;51.006;13.670;2023-12-20T20:21:53;6.05;;;4.63;;
19617;SDS011;9956;51.006;13.670;2023-12-20T20:26:55;5.10;;;4.43;;
19617;SDS011;9956;51.006;13.670;2023-12-20T20:31:55;3.92;;;3.63;;
19617;SDS011;9956;51.006;13.670;2023-12-20T20:36:56;3.00;;;2.70;;
19617;SDS011;9956;51.006;13.670;2023-12-20T20:41:56;2.13;;;1.60;;
19617;SDS011;9956;51.006;13.670;2023-12-20T20:46:57;2.17;;;1.33;;
19617;SDS011;9956;51.006;13.670;2023-12-20T20:51:57;1.33;;;1.23;;
19617;SDS011;9956;51.006;13.670;2023-12-20T20:56:58;2.13;;;1.15;;
19617;SDS011;9956;51.006;13.670;2023-12-20T21:02:00;2.53;;;1.00;;
19617;SDS011;9956;51.006;13.670;2023-12-20T21:07:02;1.23;;;1.00;;
19617;SDS011;9956;51.006;13.670;2023-12-20T21:12:03;1.13;;;1.00;;
19617;SDS011;9956;51.006;13.670;2023-12-20T21:17:04;3.58;;;1.85;;
19617;SDS011;9956;51.006;13.670;2023-12-20T21:22:04;2.58;;;1.40;;
19617;SDS011;9956;51.006;13.670;2023-12-20T21:27:05;1.55;;;1.20;;
19617;SDS011;9956;51.006;13.670;2023-12-20T21:32:06;2.10;;;1.90;;
19617;SDS011;9956;51.006;13.670;2023-12-20T21:37:07;2.15;;;1.65;;
19617;SDS011;9956;51.006;13.670;2023-12-20T21:42:07;1.27;;;1.00;;
19617;SDS011;9956;51.006;13.670;2023-12-20T21:47:12;2.97;;;0.95;;
19617;SDS011;9956;51.006;13.670;2023-12-20T21:52:13;2.03;;;0.80;;
19617;SDS011;9956;51.006;13.670;2023-12-20T21:57:14;1.50;;;1.00;;
19617;SDS011;9956;51.006;13.670;2023-12-20T22:02:15;0.70;;;0.70;;
19617;SDS011;9956;51.006;13.670;2023-12-20T22:12:59;0.80;;;0.80;;
19617;SDS011;9956;51.006;13.670;2023-12-20T22:18:00;1.08;;;0.80;;
19617;SDS011;9956;51.006;13.670;2023-12-20T22:23:00;0.75;;;0.60;;
19617;SDS011;9956;51.006;13.670;2023-12-20T22:28:03;1.27;;;0.90;;
19617;SDS011;9956;51.006;13.670;2023-12-20T22:33:09;1.60;;;1.50;;
19617;SDS011;9956;51.006;13.670;2023-12-20T22:38:10;3.35;;;3.05;;
19617;SDS011;9956;51.006;13.670;2023-12-20T22:43:10;0.70;;;0.70;;
19617;SDS011;9956;51.006;13.670;2023-12-20T22:48:11;2.35;;;1.60;;
19617;SDS011;9956;51.006;13.670;2023-12-20T22:53:11;2.00;;;1.70;;
19617;SDS011;9956;51.006;13.670;2023-12-20T22:58:12;1.85;;;1.15;;
19617;SDS011;9956;51.006;13.670;2023-12-20T23:03:12;1.83;;;0.98;;
19617;SDS011;9956;51.006;13.670;2023-12-20T23:08:13;1.10;;;1.00;;
19617;SDS011;9956;51.006;13.670;2023-12-20T23:13:13;1.40;;;1.20;;
19617;SDS011;9956;51.006;13.670;2023-12-20T23:18:14;2.75;;;1.83;;
19617;SDS011;9956;51.006;13.670;2023-12-20T23:23:14;2.00;;;0.98;;
19617;SDS011;9956;51.006;13.670;2023-12-20T23:28:15;2.00;;;0.95;;
19617;SDS011;9956;51.006;13.670;2023-12-20T23:33:15;1.20;;;0.88;;
19617;SDS011;9956;51.006;13.670;2023-12-20T23:38:16;1.40;;;0.77;;
19617;SDS011;9956;51.006;13.670;2023-12-20T23:43:16;1.00;;;0.80;;
19617;SDS011;9956;51.006;13.670;2023-12-20T23:48:16;1.17;;;1.00;;
19617;SDS011;9956;51.006;13.670;2023-12-20T23:53:17;1.38;;;0.80;;
19617;SDS011;9956;51.006;13.670;2023-12-20T23:58:18;1.80;;;1.63;;
